Forres, United Kingdom
Current Conditions -  °F | °C
As of 8:50 AM on Saturday 22 Nov 2014 (Local Time) from EGQK Reporting Station
Light Rain Light Rain  
Wind Chill: 50°   Ceiling: 5000
Heat Index: 50°   Visibility: 6mi
Dew Point: 45°   Wind: 10mph
Humidity: 82%   Direction: 160°SSE
Pressure: 29.68"   Gusts: NA
Location:  57.61°N, 3.61°W
Report Text: EGQK 220850Z AUTO 16009KT 9999 -RA OVC050/// 10/07 Q1005
Loading
Personal Weather Stations






























Interactive Weather Map New forecast layout! Learn more

10-Day Weather Forecast

Advertisements
Track Severe Weather on mobile